createdAt,value
2019-03-25T00:01:29.179Z,95581.44
2019-03-25T00:04:01.161Z,95584.41
2019-03-25T00:06:33.341Z,95588.68
2019-03-25T00:09:07.286Z,95582.23
2019-03-25T00:11:39.231Z,95582.01
2019-03-25T00:14:11.400Z,95582.14
2019-03-25T00:16:43.279Z,95574.97
2019-03-25T00:19:15.186Z,95571.05
2019-03-25T00:21:47.221Z,95569.30
2019-03-25T00:24:19.522Z,95568.44
2019-03-25T00:26:51.329Z,95569.28
2019-03-25T00:29:23.149Z,95560.35
2019-03-25T00:31:55.071Z,95559.64
2019-03-25T00:34:26.963Z,95556.97
2019-03-25T00:36:58.859Z,95554.27
2019-03-25T00:39:30.725Z,95562.56
2019-03-25T00:42:02.726Z,95560.84
2019-03-25T00:44:34.614Z,95556.36
2019-03-25T00:47:06.714Z,95552.39
2019-03-25T00:49:38.811Z,95550.99
2019-03-25T00:52:10.792Z,95544.53
2019-03-25T00:54:49.907Z,95546.17
2019-03-25T00:57:16.358Z,95538.31
2019-03-25T00:59:49.054Z,95546.18
2019-03-25T01:02:21.084Z,95539.67
2019-03-25T01:04:52.901Z,95536.89
2019-03-25T01:07:25.035Z,95529.44
2019-03-25T01:09:56.938Z,95518.73
2019-03-25T01:12:28.943Z,95519.10
2019-03-25T01:15:00.800Z,95513.64
2019-03-25T01:17:32.683Z,95511.80
2019-03-25T01:20:05.956Z,95500.79
2019-03-25T01:22:37.912Z,95500.33
2019-03-25T01:25:10.482Z,95498.63
2019-03-25T01:27:42.441Z,95500.80
2019-03-25T01:30:14.726Z,95496.34
2019-03-25T01:32:46.546Z,95507.95
2019-03-25T01:35:18.458Z,95506.23
2019-03-25T01:37:50.394Z,95509.59
2019-03-25T01:40:22.234Z,95505.87
2019-03-25T01:42:54.089Z,95491.52
2019-03-25T01:45:26.108Z,95493.06
2019-03-25T01:47:59.078Z,95494.56
2019-03-25T01:50:31.164Z,95498.70
2019-03-25T01:53:03.038Z,95493.77
2019-03-25T01:55:34.896Z,95487.27
2019-03-25T01:58:06.816Z,95484.09
2019-03-25T02:00:38.959Z,95479.75
2019-03-25T02:03:10.839Z,95473.63
2019-03-25T02:05:42.826Z,95469.55
2019-03-25T02:08:14.703Z,95476.27
2019-03-25T02:10:46.605Z,95466.30
2019-03-25T02:13:18.616Z,95477.92
2019-03-25T02:15:50.601Z,95477.27
2019-03-25T02:18:22.548Z,95473.63
2019-03-25T02:20:54.511Z,95478.24
2019-03-25T02:23:26.339Z,95472.14
2019-03-25T02:25:58.191Z,95469.88
2019-03-25T02:28:30.195Z,95477.28
2019-03-25T02:31:02.166Z,95464.58
2019-03-25T02:33:34.218Z,95469.57
2019-03-25T02:36:06.104Z,95457.07
2019-03-25T02:38:38.071Z,95467.64
2019-03-25T02:41:11.656Z,95463.45
2019-03-25T02:43:43.560Z,95470.45
2019-03-25T02:46:15.565Z,95477.52
2019-03-25T02:48:47.912Z,95476.27
2019-03-25T02:51:19.777Z,95470.94
2019-03-25T02:53:51.666Z,95473.02
2019-03-25T02:56:23.590Z,95468.08
2019-03-25T02:58:55.401Z,95459.67
2019-03-25T03:01:27.534Z,95470.42
2019-03-25T03:03:59.510Z,95457.77
2019-03-25T03:06:32.435Z,95463.09
2019-03-25T03:09:05.165Z,95456.23
2019-03-25T03:11:37.319Z,95463.02
2019-03-25T03:14:09.404Z,95464.69
2019-03-25T03:16:41.256Z,95451.52
2019-03-25T03:19:13.416Z,95455.94
2019-03-25T03:21:45.318Z,95451.00
2019-03-25T03:24:17.123Z,95462.05
2019-03-25T03:26:49.037Z,95455.31
2019-03-25T03:29:20.860Z,95461.03
2019-03-25T03:31:52.691Z,95459.00
2019-03-25T03:34:24.604Z,95460.20
2019-03-25T03:36:56.514Z,95456.16
2019-03-25T03:39:29.496Z,95462.70
2019-03-25T03:42:02.416Z,95459.61
2019-03-25T03:44:34.247Z,95450.48
2019-03-25T03:47:06.360Z,95452.69
2019-03-25T03:49:38.290Z,95446.57
2019-03-25T03:52:10.469Z,95444.98
2019-03-25T03:54:42.404Z,95447.42
2019-03-25T03:57:14.918Z,95442.39
2019-03-25T03:59:47.037Z,95445.56
2019-03-25T04:02:18.979Z,95452.22
2019-03-25T04:04:51.013Z,95454.56
2019-03-25T04:07:23.100Z,95452.03
2019-03-25T04:09:54.987Z,95457.41
2019-03-25T04:12:27.298Z,95460.84
2019-03-25T04:14:59.301Z,95453.63
2019-03-25T04:17:31.404Z,95455.28
2019-03-25T04:20:03.324Z,95451.92
2019-03-25T04:22:35.166Z,95453.31
2019-03-25T04:25:07.441Z,95445.75
2019-03-25T04:27:39.375Z,95447.39
2019-03-25T04:30:11.435Z,95449.58
2019-03-25T04:32:43.501Z,95457.20
2019-03-25T04:35:15.417Z,95457.91
2019-03-25T04:37:47.337Z,95465.03
2019-03-25T04:40:19.401Z,95457.89
2019-03-25T04:42:51.391Z,95454.67
2019-03-25T04:45:23.358Z,95456.16
2019-03-25T04:47:55.526Z,95455.17
2019-03-25T04:50:27.444Z,95457.48
2019-03-25T04:52:59.456Z,95448.95
2019-03-25T04:55:31.381Z,95448.10
2019-03-25T04:58:03.382Z,95441.25
2019-03-25T05:00:37.460Z,95441.75
2019-03-25T05:03:09.424Z,95444.00
2019-03-25T05:05:41.291Z,95441.88
2019-03-25T05:08:13.263Z,95436.91
2019-03-25T05:10:45.763Z,95442.47
2019-03-25T05:13:17.625Z,95435.69
2019-03-25T05:15:49.557Z,95434.09
2019-03-25T05:18:21.539Z,95442.20
2019-03-25T05:20:53.364Z,95444.63
2019-03-25T05:23:25.473Z,95449.94
2019-03-25T05:25:57.496Z,95452.47
2019-03-25T05:28:29.374Z,95451.21
2019-03-25T05:31:01.319Z,95445.31
2019-03-25T05:33:33.205Z,95453.98
2019-03-25T05:36:05.293Z,95447.91
2019-03-25T05:38:37.311Z,95439.20
2019-03-25T05:41:09.389Z,95440.16
2019-03-25T05:43:41.449Z,95439.34
2019-03-25T05:46:13.319Z,95444.64
2019-03-25T05:48:46.277Z,95452.31
2019-03-25T05:51:18.353Z,95445.94
2019-03-25T05:53:50.533Z,95447.37
2019-03-25T05:56:22.831Z,95444.89
2019-03-25T05:58:54.752Z,95461.82
2019-03-25T06:01:27.039Z,95461.02
2019-03-25T06:03:59.919Z,95460.88
2019-03-25T06:06:31.982Z,95466.30
2019-03-25T06:09:04.934Z,95464.77
2019-03-25T06:11:37.038Z,95466.06
2019-03-25T06:14:08.995Z,95454.19
2019-03-25T06:16:40.846Z,95465.48
2019-03-25T06:19:12.706Z,95468.77
2019-03-25T06:21:45.747Z,95467.73
2019-03-25T06:24:17.598Z,95466.05
2019-03-25T06:26:49.685Z,95465.83
2019-03-25T06:29:21.520Z,95470.60
2019-03-25T06:31:53.454Z,95478.50
2019-03-25T06:34:25.540Z,95470.07
2019-03-25T06:36:57.489Z,95479.36
2019-03-25T06:39:29.463Z,95486.91
2019-03-25T06:42:01.495Z,95482.91
2019-03-25T06:44:33.383Z,95483.47
2019-03-25T06:47:05.351Z,95486.44
2019-03-25T06:49:37.193Z,95484.65
2019-03-25T06:52:09.057Z,95488.30
2019-03-25T06:54:40.925Z,95487.92
2019-03-25T06:57:12.787Z,95485.35
2019-03-25T06:59:44.974Z,95491.23
2019-03-25T07:02:16.997Z,95491.23
2019-03-25T07:04:48.858Z,95490.74
2019-03-25T07:07:20.695Z,95488.30
2019-03-25T07:09:52.508Z,95485.00
2019-03-25T07:12:24.890Z,95481.72
2019-03-25T07:14:56.878Z,95484.42
2019-03-25T07:17:28.769Z,95482.41
2019-03-25T07:20:00.703Z,95480.88
2019-03-25T07:22:32.607Z,95487.93
2019-03-25T07:25:04.856Z,95487.61
2019-03-25T07:27:37.405Z,95484.77
2019-03-25T07:30:11.596Z,95481.95
2019-03-25T07:32:43.473Z,95483.48
2019-03-25T07:35:15.435Z,95474.79
2019-03-25T07:37:47.218Z,95474.33
2019-03-25T07:40:19.303Z,95473.02
2019-03-25T07:42:51.378Z,95479.36
2019-03-25T07:45:23.253Z,95482.30
2019-03-25T07:47:55.197Z,95482.98
2019-03-25T07:50:27.360Z,95482.30
2019-03-25T07:52:59.440Z,95488.08
2019-03-25T07:55:31.436Z,95487.25
2019-03-25T07:58:03.439Z,95484.42
2019-03-25T08:00:35.355Z,95490.55
2019-03-25T08:03:07.368Z,95485.94
2019-03-25T08:05:39.295Z,95474.30
2019-03-25T08:08:11.220Z,95486.39
2019-03-25T08:10:43.277Z,95484.89
2019-03-25T08:13:15.308Z,95484.67
2019-03-25T08:15:47.191Z,95474.05
2019-03-25T08:18:19.349Z,95475.11
2019-03-25T08:20:51.300Z,95483.53
2019-03-25T08:23:23.239Z,95482.20
2019-03-25T08:25:55.362Z,95478.66
2019-03-25T08:28:27.421Z,95473.18
2019-03-25T08:30:59.316Z,95479.84
2019-03-25T08:33:31.317Z,95478.39
2019-03-25T08:36:03.258Z,95478.63
2019-03-25T08:38:35.204Z,95470.55
2019-03-25T08:41:07.293Z,95470.20
2019-03-25T08:43:39.180Z,95478.67
2019-03-25T08:46:11.078Z,95464.45
2019-03-25T08:48:43.107Z,95471.19
2019-03-25T08:51:15.209Z,95478.75
2019-03-25T08:53:47.161Z,95485.15
2019-03-25T08:56:19.142Z,95487.67
2019-03-25T08:58:51.020Z,95487.97
2019-03-25T09:01:23.032Z,95482.85
2019-03-25T09:03:55.077Z,95484.28
2019-03-25T09:06:27.010Z,95488.09
2019-03-25T09:08:59.002Z,95483.59
2019-03-25T09:11:30.986Z,95487.90
2019-03-25T09:14:02.847Z,95484.75
2019-03-25T09:16:34.708Z,95482.63
2019-03-25T09:19:07.000Z,95485.69
2019-03-25T09:21:39.043Z,95482.89
2019-03-25T09:24:10.990Z,95478.55
2019-03-25T09:26:42.971Z,95479.02
2019-03-25T09:29:15.136Z,95487.15
2019-03-25T09:31:47.139Z,95481.70
2019-03-25T09:34:19.142Z,95477.67
2019-03-25T09:36:50.953Z,95488.59
2019-03-25T09:39:22.773Z,95475.86
2019-03-25T09:41:54.672Z,95470.41
2019-03-25T09:44:26.607Z,95476.07
2019-03-25T09:46:58.604Z,95478.87
2019-03-25T09:49:30.570Z,95487.00
2019-03-25T09:52:02.581Z,95478.33
2019-03-25T09:54:34.574Z,95496.70
2019-03-25T09:57:06.655Z,95482.14
2019-03-25T09:59:38.474Z,95485.88
2019-03-25T10:02:10.449Z,95488.83
2019-03-25T10:04:42.429Z,95488.83
2019-03-25T10:07:23.604Z,95495.26
2019-03-25T10:09:55.884Z,95496.91
2019-03-25T10:12:28.231Z,95499.98
2019-03-25T10:15:00.352Z,95501.14
2019-03-25T10:17:32.355Z,95508.40
2019-03-25T10:20:04.566Z,95504.67
2019-03-25T10:22:36.445Z,95505.28
2019-03-25T10:25:09.585Z,95503.48
2019-03-25T10:27:41.742Z,95503.49
2019-03-25T10:30:14.887Z,95505.42
2019-03-25T10:32:46.801Z,95488.95
2019-03-25T10:35:18.790Z,95485.84
2019-03-25T10:37:50.672Z,95488.08
2019-03-25T10:40:22.704Z,95469.89
2019-03-25T10:42:54.675Z,95459.13
2019-03-25T10:45:27.049Z,95450.73
2019-03-25T10:47:58.995Z,95446.61
2019-03-25T10:50:30.957Z,95448.42
2019-03-25T10:53:02.996Z,95443.13
2019-03-25T10:55:35.101Z,95453.86
2019-03-25T10:58:07.072Z,95440.52
2019-03-25T11:00:39.542Z,95433.78
2019-03-25T11:03:12.294Z,95441.59
2019-03-25T11:05:44.382Z,95435.16
2019-03-25T11:08:16.194Z,95436.72
2019-03-25T11:10:49.349Z,95444.97
2019-03-25T11:13:21.313Z,95448.06
2019-03-25T11:15:53.441Z,95439.38
2019-03-25T11:18:25.297Z,95448.31
2019-03-25T11:20:57.197Z,95441.61
2019-03-25T11:23:29.007Z,95432.22
2019-03-25T11:26:00.825Z,95429.46
2019-03-25T11:28:32.694Z,95433.41
2019-03-25T11:31:04.795Z,95431.77
2019-03-25T11:33:36.724Z,95425.98
2019-03-25T11:36:08.997Z,95421.27
2019-03-25T11:38:40.958Z,95420.84
2019-03-25T11:41:13.133Z,95419.86
2019-03-25T11:43:45.022Z,95418.69
2019-03-25T11:46:17.095Z,95423.12
2019-03-25T11:48:48.957Z,95416.84
2019-03-25T11:51:20.887Z,95416.53
2019-03-25T11:53:52.892Z,95426.02
2019-03-25T11:56:24.866Z,95427.19
2019-03-25T11:58:56.857Z,95431.12
2019-03-25T12:01:28.758Z,95432.41
2019-03-25T12:04:00.739Z,95438.66
2019-03-25T12:06:32.725Z,95440.53
2019-03-25T12:09:06.752Z,95434.44
2019-03-25T12:11:38.585Z,95439.29
2019-03-25T12:14:10.651Z,95441.47
2019-03-25T12:16:42.625Z,95445.69
2019-03-25T12:19:14.454Z,95442.58
2019-03-25T12:21:46.529Z,95433.25
2019-03-25T12:24:18.696Z,95427.33
2019-03-25T12:26:50.740Z,95416.48
2019-03-25T12:29:30.035Z,95407.52
2019-03-25T12:31:56.240Z,95404.89
2019-03-25T12:34:28.180Z,95405.27
2019-03-25T12:37:00.377Z,95396.06
2019-03-25T12:39:33.422Z,95388.59
2019-03-25T12:42:06.557Z,95389.45
2019-03-25T12:44:38.577Z,95389.24
2019-03-25T12:47:10.485Z,95394.25
2019-03-25T12:49:42.299Z,95398.34
2019-03-25T12:52:14.268Z,95388.93
2019-03-25T12:54:46.354Z,95401.65
2019-03-25T12:57:18.413Z,95390.09
2019-03-25T12:59:50.308Z,95394.33
2019-03-25T13:02:22.466Z,95396.16
2019-03-25T13:04:54.438Z,95420.09
2019-03-25T13:07:26.652Z,95415.86
2019-03-25T13:09:58.778Z,95429.00
2019-03-25T13:12:30.742Z,95417.79
2019-03-25T13:15:02.680Z,95425.66
2019-03-25T13:17:34.901Z,95425.65
2019-03-25T13:20:07.440Z,95436.77
2019-03-25T13:22:39.273Z,95434.03
2019-03-25T13:25:11.367Z,95440.98
2019-03-25T13:27:43.327Z,95444.77
2019-03-25T13:30:15.890Z,95451.13
2019-03-25T13:32:47.887Z,95457.49
2019-03-25T13:35:19.700Z,95463.69
2019-03-25T13:37:51.666Z,95462.89
2019-03-25T13:40:23.744Z,95464.41
2019-03-25T13:42:55.737Z,95463.58
2019-03-25T13:45:27.667Z,95455.28
2019-03-25T13:47:59.703Z,95467.13
2019-03-25T13:50:31.597Z,95448.15
2019-03-25T13:53:03.535Z,95452.64
2019-03-25T13:55:35.722Z,95450.87
2019-03-25T13:58:07.514Z,95454.75
2019-03-25T14:00:41.503Z,95458.59
2019-03-25T14:03:13.479Z,95450.69
2019-03-25T14:05:45.298Z,95447.14
2019-03-25T14:08:18.080Z,95441.97
2019-03-25T14:10:49.860Z,95444.44
2019-03-25T14:13:21.803Z,95450.64
2019-03-25T14:15:53.706Z,95461.34
2019-03-25T14:18:25.622Z,95473.67
2019-03-25T14:20:57.433Z,95474.43
2019-03-25T14:23:29.239Z,95470.20
2019-03-25T14:26:01.320Z,95485.57
2019-03-25T14:28:33.311Z,95481.23
2019-03-25T14:31:05.261Z,95480.74
2019-03-25T14:33:37.225Z,95478.50
2019-03-25T14:36:09.096Z,95473.81
2019-03-25T14:38:41.206Z,95474.31
2019-03-25T14:41:13.005Z,95473.95
2019-03-25T14:43:44.838Z,95476.23
2019-03-25T14:46:16.821Z,95465.32
2019-03-25T14:48:48.670Z,95471.02
2019-03-25T14:51:20.471Z,95489.25
2019-03-25T14:53:52.384Z,95509.63
2019-03-25T14:56:24.255Z,95539.27
2019-03-25T14:58:56.298Z,95548.57
2019-03-25T15:01:28.169Z,95556.75
2019-03-25T15:04:00.000Z,95574.83
2019-03-25T15:06:34.096Z,95573.41
2019-03-25T15:09:07.529Z,95561.67
2019-03-25T15:11:39.815Z,95540.31
2019-03-25T15:14:11.882Z,95539.61
2019-03-25T15:16:43.824Z,95548.43
2019-03-25T15:19:16.285Z,95553.77
2019-03-25T15:21:48.238Z,95559.84
2019-03-25T15:24:20.149Z,95561.56
2019-03-25T15:26:52.291Z,95543.67
2019-03-25T15:29:24.267Z,95536.55
2019-03-25T15:31:56.303Z,95533.66
2019-03-25T15:34:28.220Z,95541.53
2019-03-25T15:37:00.072Z,95533.39
2019-03-25T15:39:31.902Z,95548.03
2019-03-25T15:42:03.710Z,95542.66
2019-03-25T15:44:35.679Z,95535.27
2019-03-25T15:47:07.585Z,95544.84
2019-03-25T15:49:39.683Z,95540.17
2019-03-25T15:52:11.713Z,95535.13
2019-03-25T15:54:43.506Z,95530.00
2019-03-25T15:57:15.477Z,95538.13
2019-03-25T15:59:47.681Z,95535.94
2019-03-25T16:02:19.626Z,95542.53
2019-03-25T16:04:51.485Z,95546.59
2019-03-25T16:07:23.474Z,95553.95
2019-03-25T16:09:55.284Z,95558.00
2019-03-25T16:12:27.178Z,95556.66
2019-03-25T16:14:59.199Z,95550.75
2019-03-25T16:17:31.000Z,95549.37
2019-03-25T16:20:02.997Z,95548.94
2019-03-25T16:22:34.817Z,95546.86
2019-03-25T16:25:07.886Z,95541.38
2019-03-25T16:27:39.667Z,95548.84
2019-03-25T16:30:12.067Z,95587.64
2019-03-25T16:32:43.966Z,95618.05
2019-03-25T16:35:16.191Z,95637.54
2019-03-25T16:37:48.044Z,95634.75
2019-03-25T16:40:20.124Z,95646.17
2019-03-25T16:42:51.912Z,95642.31
2019-03-25T16:45:24.780Z,95636.09
2019-03-25T16:47:56.740Z,95629.83
2019-03-25T16:50:28.638Z,95646.88
2019-03-25T16:53:00.443Z,95645.72
2019-03-25T16:55:32.268Z,95628.04
2019-03-25T16:58:04.093Z,95622.98
2019-03-25T17:00:36.000Z,95617.48
2019-03-25T17:03:08.382Z,95618.98
2019-03-25T17:05:42.353Z,95613.16
2019-03-25T17:08:13.875Z,95612.87
2019-03-25T17:10:45.758Z,95621.69
2019-03-25T17:13:18.485Z,95617.59
2019-03-25T17:15:50.622Z,95621.84
2019-03-25T17:18:23.774Z,95634.70
2019-03-25T17:20:55.751Z,95641.08
2019-03-25T17:23:27.713Z,95636.88
2019-03-25T17:25:59.910Z,95642.28
2019-03-25T17:28:32.116Z,95639.59
2019-03-25T17:31:04.112Z,95650.49
2019-03-25T17:33:35.947Z,95646.34
2019-03-25T17:36:08.026Z,95652.42
2019-03-25T17:38:42.736Z,95652.91
2019-03-25T17:41:13.692Z,95648.59
2019-03-25T17:43:45.590Z,95651.66
2019-03-25T17:46:17.426Z,95662.10
2019-03-25T17:48:49.685Z,95682.38
2019-03-25T17:51:21.595Z,95683.03
2019-03-25T17:53:53.676Z,95677.45
2019-03-25T17:56:25.717Z,95677.45
2019-03-25T17:58:57.697Z,95680.91
2019-03-25T18:01:34.825Z,95683.76
2019-03-25T18:04:06.913Z,95685.29
2019-03-25T18:06:38.891Z,95677.91
2019-03-25T18:09:11.891Z,95675.89
2019-03-25T18:11:43.867Z,95681.39
2019-03-25T18:14:15.813Z,95695.89
2019-03-25T18:16:48.905Z,95698.03
2019-03-25T18:19:21.931Z,95707.73
2019-03-25T18:21:54.005Z,95710.48
2019-03-25T18:24:26.213Z,95713.53
2019-03-25T18:26:58.203Z,95727.47
2019-03-25T18:29:29.995Z,95732.25
2019-03-25T18:32:01.992Z,95747.97
2019-03-25T18:34:33.806Z,95752.64
2019-03-25T18:37:05.802Z,95751.31
2019-03-25T18:39:37.939Z,95768.78
2019-03-25T18:42:09.931Z,95773.25
2019-03-25T18:44:41.954Z,95784.14
2019-03-25T18:47:14.002Z,95801.31
2019-03-25T18:49:45.996Z,95786.36
2019-03-25T18:52:18.167Z,95789.02
2019-03-25T18:54:50.279Z,95785.96
2019-03-25T18:57:22.206Z,95788.59
2019-03-25T18:59:54.411Z,95784.28
2019-03-25T19:02:26.767Z,95784.10
2019-03-25T19:04:58.996Z,95785.56
2019-03-25T19:07:31.098Z,95789.43
2019-03-25T19:10:04.526Z,95793.41
2019-03-25T19:12:36.879Z,95800.77
2019-03-25T19:15:09.169Z,95795.98
2019-03-25T19:17:41.079Z,95791.21
2019-03-25T19:20:12.977Z,95800.20
2019-03-25T19:22:44.971Z,95809.33
2019-03-25T19:25:17.074Z,95806.45
2019-03-25T19:27:49.475Z,95811.36
2019-03-25T19:30:21.724Z,95815.86
2019-03-25T19:32:53.833Z,95815.77
2019-03-25T19:35:25.755Z,95817.26
2019-03-25T19:37:57.746Z,95817.34
2019-03-25T19:40:29.732Z,95817.52
2019-03-25T19:43:01.682Z,95821.66
2019-03-25T19:45:33.670Z,95824.31
2019-03-25T19:48:06.941Z,95827.56
2019-03-25T19:50:38.771Z,95826.34
2019-03-25T19:53:19.029Z,95836.48
2019-03-25T19:55:44.333Z,95835.64
2019-03-25T19:58:16.292Z,95846.04
2019-03-25T20:00:48.285Z,95843.84
2019-03-25T20:03:20.141Z,95852.41
2019-03-25T20:05:52.018Z,95859.22
2019-03-25T20:08:23.887Z,95857.90
2019-03-25T20:10:55.999Z,95875.07
2019-03-25T20:13:27.856Z,95865.47
2019-03-25T20:16:00.953Z,95866.87
2019-03-25T20:18:32.804Z,95873.30
2019-03-25T20:21:05.063Z,95866.75
2019-03-25T20:23:37.048Z,95865.11
2019-03-25T20:26:08.907Z,95861.53
2019-03-25T20:28:40.949Z,95867.05
2019-03-25T20:31:13.035Z,95862.98
2019-03-25T20:33:45.123Z,95859.61
2019-03-25T20:36:17.715Z,95857.54
2019-03-25T20:38:50.230Z,95852.87
2019-03-25T20:41:22.069Z,95854.78
2019-03-25T20:43:53.922Z,95861.31
2019-03-25T20:46:25.804Z,95861.34
2019-03-25T20:48:57.682Z,95869.48
2019-03-25T20:51:29.772Z,95866.91
2019-03-25T20:54:01.764Z,95859.94
2019-03-25T20:56:33.832Z,95866.23
2019-03-25T20:59:07.085Z,95870.44
2019-03-25T21:01:38.965Z,95871.16
2019-03-25T21:04:11.872Z,95868.91
2019-03-25T21:06:43.779Z,95866.42
2019-03-25T21:09:15.588Z,95867.12
2019-03-25T21:11:47.607Z,95869.19
2019-03-25T21:14:19.497Z,95870.95
2019-03-25T21:16:51.520Z,95870.54
2019-03-25T21:19:23.743Z,95871.34
2019-03-25T21:21:55.587Z,95873.88
2019-03-25T21:24:27.954Z,95876.63
2019-03-25T21:27:00.008Z,95875.61
2019-03-25T21:29:32.210Z,95871.97
2019-03-25T21:32:04.388Z,95874.58
2019-03-25T21:34:36.719Z,95879.61
2019-03-25T21:37:08.658Z,95889.20
2019-03-25T21:39:40.753Z,95888.12
2019-03-25T21:42:12.643Z,95893.02
2019-03-25T21:44:44.824Z,95892.50
2019-03-25T21:47:16.707Z,95891.06
2019-03-25T21:49:48.703Z,95889.65
2019-03-25T21:52:20.719Z,95895.08
2019-03-25T21:54:53.005Z,95896.97
2019-03-25T21:57:24.879Z,95897.16
2019-03-25T21:59:57.231Z,95892.31
2019-03-25T22:02:29.235Z,95887.52
2019-03-25T22:05:01.301Z,95886.09
2019-03-25T22:07:34.417Z,95888.63
2019-03-25T22:10:06.953Z,95893.11
2019-03-25T22:12:38.772Z,95902.58
2019-03-25T22:15:11.535Z,95911.20
2019-03-25T22:17:43.598Z,95905.73
2019-03-25T22:20:16.033Z,95904.70
2019-03-25T22:22:48.000Z,95901.80
2019-03-25T22:25:20.212Z,95895.16
2019-03-25T22:27:52.337Z,95897.07
2019-03-25T22:30:25.896Z,95892.98
2019-03-25T22:32:58.348Z,95886.00
2019-03-25T22:35:30.399Z,95890.59
2019-03-25T22:38:02.537Z,95895.42
2019-03-25T22:40:34.446Z,95905.89
2019-03-25T22:43:06.845Z,95893.97
2019-03-25T22:45:38.925Z,95891.99
2019-03-25T22:48:10.980Z,95899.30
2019-03-25T22:50:43.145Z,95890.84
2019-03-25T22:53:15.477Z,95895.01
2019-03-25T22:55:47.698Z,95907.09
2019-03-25T22:58:19.643Z,95913.99
2019-03-25T23:00:51.827Z,95916.27
2019-03-25T23:03:24.097Z,95929.61
2019-03-25T23:05:56.496Z,95929.27
2019-03-25T23:08:28.518Z,95934.80
2019-03-25T23:11:00.725Z,95929.78
2019-03-25T23:13:32.859Z,95942.52
2019-03-25T23:16:05.290Z,95951.91
2019-03-25T23:18:37.411Z,95953.45
2019-03-25T23:21:09.442Z,95958.67
2019-03-25T23:23:41.337Z,95960.41
2019-03-25T23:26:14.385Z,95968.34
2019-03-25T23:28:46.507Z,95967.64
2019-03-25T23:31:19.062Z,95973.41
2019-03-25T23:33:52.648Z,95973.08
2019-03-25T23:36:25.319Z,95964.84
2019-03-25T23:38:57.621Z,95972.61
2019-03-25T23:41:29.850Z,95980.16
2019-03-25T23:44:01.987Z,95983.08
2019-03-25T23:46:34.428Z,95993.67
2019-03-25T23:49:08.068Z,95996.77
2019-03-25T23:51:40.275Z,95996.30
2019-03-25T23:54:13.329Z,95996.22
2019-03-25T23:56:45.943Z,95987.54
2019-03-25T23:59:18.159Z,95992.98
